Time;durP1;ratioP1;P1;durP2;ratioP2;P2;SDS_P1;SDS_P2;PMS_P1;PMS_P2;Temp;Humidity;BMP_temperature;BMP_pressure;BME280_temperature;BME280_humidity;BME280_pressure;Samples;Min_cycle;Max_cycle;Signal;HPM_P1;HPM_P2
2022/10/04 00:00:13;;;;;;;;;;;;;;;14.81;58.83;99652.50;300719;32;3005;-76
2022/10/04 00:00:26;;;;;;;;;;;;;;;14.78;58.96;99648.25;302353;32;4330;-76
2022/10/04 00:00:36;;;;;;;;;;;;;;;14.75;59.32;99648.44;304447;32;4383;-76
2022/10/04 00:00:47;;;;;;;;;;;;;;;14.75;59.42;99642.31;303391;32;1195;-76
2022/10/04 00:01:17;;;;;;;;;;;;;;;14.73;59.06;99647.66;300376;32;4256;-76
2022/10/04 00:01:31;;;;;;;;;;;;;;;14.76;59.25;99650.13;296095;33;1314;-76
2022/10/04 00:01:46;;;;;;;;;;;;;;;14.75;59.09;99647.59;294518;33;4503;-78
2022/10/04 00:01:57;;;;;;;;;;;;;;;14.77;59.36;99656.25;291735;33;3311;-77
2022/10/04 00:02:13;;;;;;;;;;;;;;;14.76;59.05;99655.41;292189;33;3193;-77
2022/10/04 00:02:25;;;;;;;;;;;;;;;14.70;59.11;99658.41;291904;33;5740;-76
2022/10/04 00:02:35;;;;;;;;;;;;;;;14.70;59.22;99658.41;291162;33;6653;-76
2022/10/04 00:02:45;;;;;;;;;;;;;;;14.69;59.33;99654.09;291408;34;2040;-79
2022/10/04 00:03:03;;;;;;;;;;;;;;;14.69;59.09;99654.09;289086;34;6384;-77
2022/10/04 00:03:16;;;;;;;;;;;;;;;14.71;59.29;99657.47;288628;34;1046;-78
2022/10/04 00:03:28;;;;;;;;;;;;;;;14.69;59.38;99651.44;283710;34;6551;-76
2022/10/04 00:03:40;;;;;;;;;;;;;;;14.68;59.38;99655.03;282586;34;6142;-76
2022/10/04 00:04:00;;;;;;;;;;;;;;;14.68;59.44;99655.03;281765;34;5886;-76
2022/10/04 00:04:13;;;;;;;;;;;;;;;14.71;59.14;99667.16;283320;34;4698;-76
2022/10/04 00:04:26;;;;;;;;;;;;;;;14.71;59.29;99656.63;281714;34;5184;-77
2022/10/04 00:04:40;;;;;;;;;;;;;;;14.71;59.53;99659.28;279635;35;6711;-77
2022/10/04 00:05:03;;;;;;;;;;;;;;;14.71;59.13;99670.66;281239;34;8576;-76
2022/10/04 00:05:14;;;;;;;;;;;;;;;14.71;59.44;99661.91;277324;35;1494;-77
2022/10/04 00:05:24;;;;;;;;;;;;;;;14.68;59.39;99662.94;276337;35;9925;-76
2022/10/04 00:07:46;;;;;;;;;;;;;;;14.68;59.38;99665.56;2501869;27;19923;-76
2022/10/04 00:07:57;;;;;;;;;;;;;;;14.66;59.98;99662.16;353161;28;1280;-76
2022/10/04 00:08:22;;;;;;;;;;;;;;;14.66;59.55;99666.59;350510;28;1318;-77
2022/10/04 00:08:45;;;;;;;;;;;;;;;14.68;59.84;99662.94;350513;28;1314;-77
2022/10/04 00:09:10;;;;;;;;;;;;;;;14.67;59.87;99665.66;350595;28;1306;-77
2022/10/04 00:09:23;;;;;;;;;;;;;;;14.66;59.61;99662.16;350527;28;1352;-77
2022/10/04 00:09:54;;;;;;;;;;;;;;;14.68;59.64;99660.28;350575;28;855;-77
2022/10/04 00:10:14;;;;;;;;;;;;;;;14.70;59.42;99666.31;349938;28;1036;-78
2022/10/04 00:10:27;;;;;;;;;;;;;;;14.71;60.01;99662.75;349539;28;962;-76
2022/10/04 00:10:37;;;;;;;;;;;;;;;14.72;59.69;99659.19;348702;28;927;-77
2022/10/04 00:10:47;;;;;;;;;;;;;;;14.71;59.85;99661.91;346892;28;1385;-77
2022/10/04 00:11:01;;;;;;;;;;;;;;;14.69;59.56;99663.78;347799;28;943;-77
2022/10/04 00:11:17;;;;;;;;;;;;;;;14.68;59.87;99662.94;347861;28;978;-76
2022/10/04 00:11:28;;;;;;;;;;;;;;;14.67;59.63;99663.84;347884;28;809;-76
2022/10/04 00:11:42;;;;;;;;;;;;;;;14.64;59.78;99666.66;347326;28;1365;-76
2022/10/04 00:11:52;;;;;;;;;;;;;;;14.64;60.01;99666.66;349963;28;1128;-76
2022/10/04 00:12:02;;;;;;;;;;;;;;;14.62;60.03;99663.28;350066;28;1874;-76
2022/10/04 00:12:20;;;;;;;;;;;;;;;14.60;59.81;99666.00;349161;28;1219;-76
2022/10/04 00:12:34;;;;;;;;;;;;;;;14.59;60.07;99664.28;346404;28;1231;-76
2022/10/04 00:12:49;;;;;;;;;;;;;;;14.56;59.89;99664.47;346533;28;777;-76
2022/10/04 00:13:03;;;;;;;;;;;;;;;14.56;60.18;99669.72;344093;28;2777;-77
2022/10/04 00:13:15;;;;;;;;;;;;;;;14.57;60.00;99665.31;349918;28;1679;-77
2022/10/04 00:13:25;;;;;;;;;;;;;;;14.57;60.37;99671.44;350139;28;1766;-77
2022/10/04 00:13:36;;;;;;;;;;;;;;;14.57;60.30;99670.56;348927;28;3224;-77
2022/10/04 00:13:47;;;;;;;;;;;;;;;14.56;60.32;99663.63;347934;28;863;-77
2022/10/04 00:13:58;;;;;;;;;;;;;;;14.57;60.24;99665.31;345059;28;1326;-77
2022/10/04 00:14:12;;;;;;;;;;;;;;;14.58;60.09;99669.66;345903;28;1216;-77
2022/10/04 00:14:34;;;;;;;;;;;;;;;14.55;60.47;99661.91;347669;28;1285;-77
2022/10/04 00:14:44;;;;;;;;;;;;;;;14.48;60.11;99671.09;348442;28;1580;-77
2022/10/04 00:14:56;;;;;;;;;;;;;;;14.48;60.53;99660.56;345138;28;1575;-77
2022/10/04 00:15:17;;;;;;;;;;;;;;;14.50;60.07;99663.94;344375;28;1244;-77
2022/10/04 00:15:28;;;;;;;;;;;;;;;14.51;60.55;99666.50;342185;28;1807;-77
2022/10/04 00:15:38;;;;;;;;;;;;;;;14.50;60.52;99661.31;342123;28;1379;-77
2022/10/04 00:15:49;;;;;;;;;;;;;;;14.47;60.66;99669.38;346396;28;1258;-77
2022/10/04 00:15:59;;;;;;;;;;;;;;;14.45;60.82;99666.84;345380;28;1212;-77
2022/10/04 00:16:09;;;;;;;;;;;;;;;14.46;60.59;99670.31;342350;28;1501;-77
2022/10/04 00:16:21;;;;;;;;;;;;;;;14.44;60.89;99664.28;342348;28;1459;-78
2022/10/04 00:16:37;;;;;;;;;;;;;;;14.44;60.38;99659.03;343590;28;1983;-77
2022/10/04 00:16:47;;;;;;;;;;;;;;;14.45;60.36;99663.34;345138;28;1515;-77
2022/10/04 00:16:58;;;;;;;;;;;;;;;14.46;60.72;99671.16;346526;28;766;-77
2022/10/04 00:17:09;;;;;;;;;;;;;;;14.46;60.64;99672.97;343690;28;1206;-77
2022/10/04 00:17:21;;;;;;;;;;;;;;;14.44;60.88;99659.88;343927;28;1352;-77
2022/10/04 00:17:34;;;;;;;;;;;;;;;14.44;60.76;99669.56;344745;28;1385;-77
2022/10/04 00:17:44;;;;;;;;;;;;;;;14.41;60.56;99669.69;339718;29;1262;-77
2022/10/04 00:18:09;;;;;;;;;;;;;;;14.40;61.08;99668.00;340515;28;1683;-77
2022/10/04 00:18:21;;;;;;;;;;;;;;;14.38;60.79;99664.59;340867;29;1999;-77
2022/10/04 00:18:39;;;;;;;;;;;;;;;14.40;60.56;99668.00;339997;29;2184;-77
2022/10/04 00:18:52;;;;;;;;;;;;;;;14.39;60.78;99663.66;335726;29;1686;-77
2022/10/04 00:19:14;;;;;;;;;;;;;;;14.41;60.69;99670.59;337928;29;1382;-77
2022/10/04 00:19:26;;;;;;;;;;;;;;;14.44;60.59;99669.56;339178;29;1226;-77
2022/10/04 00:19:42;;;;;;;;;;;;;;;14.44;60.50;99670.41;337373;29;1744;-77
2022/10/04 00:19:52;;;;;;;;;;;;;;;14.44;60.39;99669.56;339164;29;1923;-78
2022/10/04 00:20:03;;;;;;;;;;;;;;;14.35;60.77;99665.63;336252;29;2357;-78
2022/10/04 00:20:32;;;;;;;;;;;;;;;14.30;60.78;99665.88;330893;29;1312;-78
2022/10/04 00:20:52;;;;;;;;;;;;;;;14.26;61.10;99674.91;328189;30;1353;-78
2022/10/04 00:21:02;;;;;;;;;;;;;;;14.31;61.10;99664.94;327480;30;1805;-78
2022/10/04 00:21:12;;;;;;;;;;;;;;;14.32;60.94;99666.63;326279;30;1015;-77
2022/10/04 00:21:23;;;;;;;;;;;;;;;14.32;61.17;99666.63;326034;30;1327;-77
2022/10/04 00:21:52;;;;;;;;;;;;;;;14.33;61.05;99667.47;329078;29;1993;-77
2022/10/04 00:22:09;;;;;;;;;;;;;;;14.38;60.92;99669.88;324389;30;2898;-78
2022/10/04 00:22:20;;;;;;;;;;;;;;;14.36;60.57;99671.72;320580;30;3287;-78
2022/10/04 00:22:31;;;;;;;;;;;;;;;14.32;60.83;99671.06;321104;30;1288;-78
2022/10/04 00:22:41;;;;;;;;;;;;;;;14.30;60.66;99667.66;317849;30;3481;-78
2022/10/04 00:23:09;;;;;;;;;;;;;;;14.31;60.85;99670.19;317720;30;3014;-78
2022/10/04 00:23:20;;;;;;;;;;;;;;;14.24;61.28;99668.03;317252;31;2393;-77
2022/10/04 00:23:36;;;;;;;;;;;;;;;14.18;60.96;99674.47;315490;31;1220;-77
2022/10/04 00:23:46;;;;;;;;;;;;;;;14.20;61.40;99669.97;314393;31;2634;-77
2022/10/04 00:24:08;;;;;;;;;;;;;;;14.21;61.14;99666.41;313312;31;859;-77
2022/10/04 00:24:22;;;;;;;;;;;;;;;14.26;60.75;99667.00;312943;31;3774;-77
2022/10/04 00:24:33;;;;;;;;;;;;;;;14.28;60.67;99670.41;305002;31;4018;-77
2022/10/04 00:25:19;;;;;;;;;;;;;;;14.29;60.89;99668.63;308786;32;1006;-77
2022/10/04 00:25:33;;;;;;;;;;;;;;;14.27;60.97;99668.69;308658;31;1391;-77
2022/10/04 00:25:43;;;;;;;;;;;;;;;14.30;60.96;99668.50;303168;32;1813;-75
2022/10/04 00:25:53;;;;;;;;;;;;;;;14.30;60.72;99667.66;303590;32;3163;-76
2022/10/04 00:26:04;;;;;;;;;;;;;;;14.32;60.64;99665.78;303955;32;5025;-76
2022/10/04 00:26:23;;;;;;;;;;;;;;;14.33;60.86;99668.34;302468;32;1332;-76
2022/10/04 00:26:34;;;;;;;;;;;;;;;14.30;60.86;99668.50;298954;32;5251;-76
2022/10/04 00:27:04;;;;;;;;;;;;;;;14.30;60.70;99668.50;297318;33;918;-76
2022/10/04 00:27:21;;;;;;;;;;;;;;;14.23;61.09;99667.16;297428;33;1210;-76
2022/10/04 00:27:31;;;;;;;;;;;;;;;14.21;61.09;99668.19;294564;33;2423;-77
2022/10/04 00:28:00;;;;;;;;;;;;;;;14.20;61.25;99664.72;285983;34;1070;-76
2022/10/04 00:28:19;;;;;;;;;;;;;;;14.24;60.94;99666.25;284165;34;4957;-76
2022/10/04 00:28:48;;;;;;;;;;;;;;;14.28;60.88;99659.88;281664;34;1255;-76
2022/10/04 00:28:58;;;;;;;;;;;;;;;14.30;60.70;99665.88;282938;35;963;-76
2022/10/04 00:31:13;;;;;;;;;;;;;;;14.35;60.89;99665.63;2463820;27;19934;-77
2022/10/04 00:31:27;;;;;;;;;;;;;;;14.36;60.98;99666.47;347116;28;3068;-76
2022/10/04 00:31:57;;;;;;;;;;;;;;;14.30;60.96;99663.22;347426;28;1312;-76
2022/10/04 00:32:07;;;;;;;;;;;;;;;14.24;61.26;99668.03;344928;28;1248;-76
2022/10/04 00:32:19;;;;;;;;;;;;;;;14.21;61.36;99669.03;345053;28;1115;-76
2022/10/04 00:32:30;;;;;;;;;;;;;;;14.21;61.31;99666.41;345361;28;1062;-77
2022/10/04 00:32:40;;;;;;;;;;;;;;;14.18;61.61;99663.94;345088;28;1228;-77
2022/10/04 00:33:09;;;;;;;;;;;;;;;14.18;61.37;99661.31;346360;28;1330;-77
2022/10/04 00:33:34;;;;;;;;;;;;;;;14.16;61.58;99660.53;346443;28;873;-76
2022/10/04 00:33:54;;;;;;;;;;;;;;;14.11;61.57;99662.56;345308;28;929;-76
2022/10/04 00:34:07;;;;;;;;;;;;;;;14.11;61.57;99661.72;346504;28;1256;-77
2022/10/04 00:34:17;;;;;;;;;;;;;;;14.13;61.17;99668.59;346525;28;801;-76
2022/10/04 00:34:27;;;;;;;;;;;;;;;14.14;61.49;99662.41;346371;28;1327;-76
2022/10/04 00:34:47;;;;;;;;;;;;;;;14.16;61.37;99667.59;347839;28;1084;-76
2022/10/04 00:34:58;;;;;;;;;;;;;;;14.18;61.41;99669.19;346456;28;1036;-76
2022/10/04 00:35:23;;;;;;;;;;;;;;;14.18;61.36;99661.31;345176;28;1107;-76
2022/10/04 00:35:34;;;;;;;;;;;;;;;14.22;61.36;99668.09;344920;28;1020;-76
2022/10/04 00:35:45;;;;;;;;;;;;;;;14.20;61.19;99661.22;345108;28;892;-76
2022/10/04 00:35:56;;;;;;;;;;;;;;;14.21;61.07;99669.03;345264;28;897;-76
2022/10/04 00:36:24;;;;;;;;;;;;;;;14.20;61.58;99661.22;344469;28;1651;-76
2022/10/04 00:36:39;;;;;;;;;;;;;;;14.20;61.34;99663.84;341104;29;873;-76
2022/10/04 00:36:53;;;;;;;;;;;;;;;14.22;61.18;99665.47;339936;28;1348;-76
2022/10/04 00:37:11;;;;;;;;;;;;;;;14.23;61.15;99667.16;341078;29;1311;-76
2022/10/04 00:37:21;;;;;;;;;;;;;;;14.25;61.47;99660.03;341945;28;1268;-76
2022/10/04 00:37:51;;;;;;;;;;;;;;;14.24;61.33;99666.25;339165;29;1231;-76
2022/10/04 00:38:12;;;;;;;;;;;;;;;14.26;61.21;99667.00;338720;29;960;-76
2022/10/04 00:38:26;;;;;;;;;;;;;;;14.24;61.04;99668.03;339866;29;876;-76
2022/10/04 00:38:36;;;;;;;;;;;;;;;14.19;61.03;99665.63;337070;29;1264;-76
2022/10/04 00:39:00;;;;;;;;;;;;;;;14.19;61.08;99665.63;339588;29;1290;-76
2022/10/04 00:39:10;;;;;;;;;;;;;;;14.20;61.40;99662.06;337159;29;1404;-76
2022/10/04 00:39:25;;;;;;;;;;;;;;;14.20;61.21;99666.50;336822;29;1478;-76
2022/10/04 00:39:38;;;;;;;;;;;;;;;14.18;61.52;99669.19;338428;29;1349;-76
2022/10/04 00:40:09;;;;;;;;;;;;;;;14.17;61.59;99667.50;336334;29;1508;-76
2022/10/04 00:40:20;;;;;;;;;;;;;;;14.22;61.39;99673.38;334634;29;906;-76
2022/10/04 00:40:31;;;;;;;;;;;;;;;14.21;61.36;99662.91;333346;29;2662;-76
2022/10/04 00:40:54;;;;;;;;;;;;;;;14.19;61.22;99670.91;334517;29;1371;-77
2022/10/04 00:41:04;;;;;;;;;;;;;;;14.24;61.08;99671.50;331038;29;3206;-76
2022/10/04 00:41:14;;;;;;;;;;;;;;;14.26;61.10;99671.41;331254;29;2037;-76
2022/10/04 00:41:25;;;;;;;;;;;;;;;14.28;60.98;99670.41;335396;29;1719;-76
2022/10/04 00:41:47;;;;;;;;;;;;;;;14.30;61.22;99665.88;329583;29;2226;-76
2022/10/04 00:42:02;;;;;;;;;;;;;;;14.32;61.17;99676.31;327156;30;891;-76
2022/10/04 00:42:21;;;;;;;;;;;;;;;14.32;60.69;99666.63;325939;30;1441;-76
2022/10/04 00:42:57;;;;;;;;;;;;;;;14.29;60.94;99677.38;323680;30;1242;-76
2022/10/04 00:43:11;;;;;;;;;;;;;;;14.25;61.22;99665.31;321232;30;1331;-76
2022/10/04 00:43:40;;;;;;;;;;;;;;;14.27;60.96;99673.97;320164;30;2261;-76
2022/10/04 00:43:50;;;;;;;;;;;;;;;14.30;61.11;99673.78;321916;30;2659;-76
2022/10/04 00:44:00;;;;;;;;;;;;;;;14.29;61.18;99674.72;320366;30;2458;-76
2022/10/04 00:44:16;;;;;;;;;;;;;;;14.28;61.19;99670.41;321201;30;1248;-76
2022/10/04 00:44:46;;;;;;;;;;;;;;;14.30;61.27;99670.28;315398;31;1386;-76
2022/10/04 00:45:07;;;;;;;;;;;;;;;14.23;61.29;99667.16;313318;31;1159;-76
2022/10/04 00:45:27;;;;;;;;;;;;;;;14.17;61.47;99672.75;309776;31;2003;-77
2022/10/04 00:45:39;;;;;;;;;;;;;;;14.18;61.22;99668.34;312219;31;2878;-77
2022/10/04 00:45:57;;;;;;;;;;;;;;;14.19;61.64;99665.63;312396;31;3361;-77
2022/10/04 00:46:11;;;;;;;;;;;;;;;14.20;61.77;99677.88;313456;31;3441;-77
2022/10/04 00:46:22;;;;;;;;;;;;;;;14.23;61.33;99663.69;311838;31;3280;-77
2022/10/04 00:46:33;;;;;;;;;;;;;;;14.24;61.53;99668.88;312020;31;3410;-77
2022/10/04 00:46:43;;;;;;;;;;;;;;;14.24;61.33;99674.13;312016;31;1236;-77
2022/10/04 00:46:54;;;;;;;;;;;;;;;14.26;61.11;99676.69;307992;31;2338;-76
2022/10/04 00:47:12;;;;;;;;;;;;;;;14.28;61.08;99674.81;306953;31;2236;-76
2022/10/04 00:47:25;;;;;;;;;;;;;;;14.29;61.22;99674.72;306445;32;2385;-76
2022/10/04 00:47:44;;;;;;;;;;;;;;;14.27;60.93;99666.06;307532;31;2973;-76
2022/10/04 00:47:57;;;;;;;;;;;;;;;14.30;61.19;99667.66;307479;32;1297;-76
2022/10/04 00:48:07;;;;;;;;;;;;;;;14.27;61.14;99673.97;302593;32;4520;-76
2022/10/04 00:48:23;;;;;;;;;;;;;;;14.23;61.51;99672.44;303882;32;4871;-76
2022/10/04 00:48:34;;;;;;;;;;;;;;;14.20;61.47;99667.34;305775;32;4483;-76
2022/10/04 00:48:54;;;;;;;;;;;;;;;14.18;61.53;99671.84;305634;32;1795;-76
2022/10/04 00:49:05;;;;;;;;;;;;;;;14.20;61.43;99675.22;298950;32;3265;-76
2022/10/04 00:49:15;;;;;;;;;;;;;;;14.22;61.25;99669.88;299397;32;3458;-76
2022/10/04 00:49:28;;;;;;;;;;;;;;;14.23;61.26;99672.44;300390;32;909;-77
2022/10/04 00:49:39;;;;;;;;;;;;;;;14.23;61.63;99666.31;296917;32;3720;-76
2022/10/04 00:49:50;;;;;;;;;;;;;;;14.16;61.23;99665.81;291584;33;4768;-76
2022/10/04 00:50:12;;;;;;;;;;;;;;;14.16;61.45;99668.44;290200;33;5681;-76
2022/10/04 00:50:29;;;;;;;;;;;;;;;14.19;61.45;99673.53;290780;33;6693;-76
2022/10/04 00:50:43;;;;;;;;;;;;;;;14.22;61.09;99670.72;292712;33;5310;-76
2022/10/04 00:50:55;;;;;;;;;;;;;;;14.25;61.05;99672.34;289447;33;6237;-76
2022/10/04 00:51:05;;;;;;;;;;;;;;;14.24;60.98;99674.13;290672;33;6702;-76
2022/10/04 00:52:52;;;;;;;;;;;;;;;14.22;61.27;99669.88;2497540;27;20358;-76
2022/10/04 00:53:03;;;;;;;;;;;;;;;14.19;61.42;99665.63;353299;28;1345;-76
2022/10/04 00:53:30;;;;;;;;;;;;;;;14.20;61.52;99664.72;350604;28;1196;-76
2022/10/04 00:53:51;;;;;;;;;;;;;;;14.20;61.44;99669.97;349298;28;1160;-77
2022/10/04 00:54:16;;;;;;;;;;;;;;;14.18;61.44;99669.19;347914;28;892;-76
2022/10/04 00:54:43;;;;;;;;;;;;;;;14.19;61.39;99670.06;346686;28;896;-76
2022/10/04 00:54:55;;;;;;;;;;;;;;;14.16;61.81;99660.53;347860;28;1264;-76
2022/10/04 00:55:06;;;;;;;;;;;;;;;14.18;61.74;99669.19;346429;28;1262;-76
2022/10/04 00:55:18;;;;;;;;;;;;;;;14.19;61.93;99670.06;347182;28;1610;-77
2022/10/04 00:55:36;;;;;;;;;;;;;;;14.17;61.77;99664.88;351061;28;1041;-77
2022/10/04 00:55:50;;;;;;;;;;;;;;;14.16;61.86;99668.44;347838;28;943;-77
2022/10/04 00:56:01;;;;;;;;;;;;;;;14.16;61.81;99665.81;347874;28;1089;-78
2022/10/04 00:56:13;;;;;;;;;;;;;;;14.14;61.99;99662.41;349264;28;903;-77
2022/10/04 00:56:26;;;;;;;;;;;;;;;14.16;61.60;99663.16;347777;28;1266;-77
2022/10/04 00:56:46;;;;;;;;;;;;;;;14.19;61.53;99664.78;346289;28;1365;-77
2022/10/04 00:56:58;;;;;;;;;;;;;;;14.21;61.31;99662.91;343912;28;840;-77
2022/10/04 00:57:11;;;;;;;;;;;;;;;14.22;61.52;99667.25;342327;28;1285;-76
2022/10/04 00:57:22;;;;;;;;;;;;;;;14.22;61.60;99669.88;338435;29;870;-76
2022/10/04 00:57:34;;;;;;;;;;;;;;;14.20;61.78;99672.59;339413;29;884;-76
2022/10/04 00:57:44;;;;;;;;;;;;;;;14.21;61.39;99669.03;341134;29;996;-76
2022/10/04 00:57:57;;;;;;;;;;;;;;;14.19;61.49;99664.78;342679;28;1324;-76
2022/10/04 00:58:11;;;;;;;;;;;;;;;14.17;61.60;99672.75;342622;28;1279;-76
2022/10/04 00:58:23;;;;;;;;;;;;;;;14.14;61.62;99670.31;343720;28;817;-77
2022/10/04 00:58:35;;;;;;;;;;;;;;;14.14;61.59;99670.31;345165;28;1435;-77
2022/10/04 00:58:58;;;;;;;;;;;;;;;14.13;61.53;99658.06;346065;28;1269;-77
2022/10/04 00:59:15;;;;;;;;;;;;;;;14.13;61.89;99673.88;347383;28;1889;-76
2022/10/04 00:59:36;;;;;;;;;;;;;;;14.15;61.65;99674.63;344878;28;1820;-76
2022/10/04 00:59:47;;;;;;;;;;;;;;;14.17;61.73;99670.13;341847;28;1371;-76
2022/10/04 01:00:02;;;;;;;;;;;;;;;14.17;61.74;99666.66;340999;29;1324;-76
2022/10/04 01:00:13;;;;;;;;;;;;;;;14.18;61.35;99674.47;340936;28;1441;-77
2022/10/04 01:00:23;;;;;;;;;;;;;;;14.17;61.92;99667.50;342424;28;1497;-76
2022/10/04 01:00:34;;;;;;;;;;;;;;;14.17;61.60;99666.66;342728;28;1580;-76
2022/10/04 01:00:44;;;;;;;;;;;;;;;14.18;61.85;99663.94;345371;28;1257;-76
2022/10/04 01:00:54;;;;;;;;;;;;;;;14.18;61.68;99663.94;341066;28;1210;-76
2022/10/04 01:01:04;;;;;;;;;;;;;;;14.20;61.40;99679.66;342270;28;1336;-76
2022/10/04 01:01:17;;;;;;;;;;;;;;;14.21;61.31;99673.44;342896;28;1360;-77
2022/10/04 01:01:30;;;;;;;;;;;;;;;14.22;61.24;99667.25;341067;28;1632;-76
2022/10/04 01:01:41;;;;;;;;;;;;;;;14.23;61.22;99664.53;335616;29;1918;-76
2022/10/04 01:01:53;;;;;;;;;;;;;;;14.23;61.36;99671.59;337130;29;1350;-76
2022/10/04 01:02:03;;;;;;;;;;;;;;;14.22;61.52;99665.47;341688;28;956;-77
2022/10/04 01:02:25;;;;;;;;;;;;;;;14.22;61.41;99667.25;342267;28;1214;-77
2022/10/04 01:02:42;;;;;;;;;;;;;;;14.24;61.42;99674.13;339859;29;858;-77
2022/10/04 01:02:53;;;;;;;;;;;;;;;14.24;61.61;99668.88;337202;29;890;-77
2022/10/04 01:03:05;;;;;;;;;;;;;;;14.24;61.44;99668.03;336837;29;1733;-76
2022/10/04 01:03:19;;;;;;;;;;;;;;;14.23;61.62;99676.84;335531;29;1903;-77
2022/10/04 01:03:31;;;;;;;;;;;;;;;14.24;61.35;99668.88;337352;29;1988;-77
2022/10/04 01:03:42;;;;;;;;;;;;;;;14.24;61.25;99668.88;337829;29;2252;-77
2022/10/04 01:03:53;;;;;;;;;;;;;;;14.24;61.21;99668.88;334569;29;1232;-78
2022/10/04 01:04:04;;;;;;;;;;;;;;;14.24;61.46;99668.88;335567;29;1590;-77
2022/10/04 01:04:36;;;;;;;;;;;;;;;14.25;61.31;99670.56;333737;29;1192;-77
2022/10/04 01:04:53;;;;;;;;;;;;;;;14.25;61.46;99670.56;331451;29;1905;-77
2022/10/04 01:05:05;;;;;;;;;;;;;;;14.25;61.25;99664.44;329391;29;2356;-77
2022/10/04 01:05:26;;;;;;;;;;;;;;;14.25;61.47;99665.31;330724;29;2308;-77
2022/10/04 01:05:40;;;;;;;;;;;;;;;14.24;61.33;99666.25;326776;30;1350;-77
2022/10/04 01:05:52;;;;;;;;;;;;;;;14.23;61.44;99672.44;324607;30;1218;-77
2022/10/04 01:06:04;;;;;;;;;;;;;;;14.23;61.44;99672.44;327821;30;2766;-77
2022/10/04 01:06:14;;;;;;;;;;;;;;;14.23;61.47;99672.44;325441;30;1835;-77
2022/10/04 01:06:25;;;;;;;;;;;;;;;14.22;61.46;99669.88;323598;30;795;-77
2022/10/04 01:06:35;;;;;;;;;;;;;;;14.22;61.59;99665.47;321261;30;1329;-77
2022/10/04 01:06:45;;;;;;;;;;;;;;;14.21;61.23;99669.03;321614;30;2050;-77
2022/10/04 01:06:57;;;;;;;;;;;;;;;14.22;61.55;99673.38;321824;30;2450;-77
2022/10/04 01:07:07;;;;;;;;;;;;;;;14.23;61.31;99671.59;322303;30;880;-77
2022/10/04 01:07:22;;;;;;;;;;;;;;;14.23;61.15;99667.16;324764;30;2913;-77
2022/10/04 01:07:34;;;;;;;;;;;;;;;14.24;61.30;99674.13;321710;30;3002;-78
2022/10/04 01:07:47;;;;;;;;;;;;;;;14.23;61.31;99671.59;321824;30;3202;-77
2022/10/04 01:08:08;;;;;;;;;;;;;;;14.23;61.22;99668.94;318747;30;3431;-77
2022/10/04 01:08:25;;;;;;;;;;;;;;;14.23;61.48;99672.44;315323;31;3209;-77
2022/10/04 01:08:37;;;;;;;;;;;;;;;14.24;61.08;99674.13;316503;31;2035;-77
2022/10/04 01:08:48;;;;;;;;;;;;;;;14.24;61.35;99671.50;314041;31;2419;-77
2022/10/04 01:09:04;;;;;;;;;;;;;;;14.24;61.14;99674.13;314644;31;2769;-77
2022/10/04 01:09:14;;;;;;;;;;;;;;;14.24;61.06;99673.28;313265;31;3576;-77
2022/10/04 01:09:25;;;;;;;;;;;;;;;14.25;61.28;99669.72;311365;31;4323;-77
2022/10/04 01:09:36;;;;;;;;;;;;;;;14.24;61.74;99673.28;306547;32;1163;-77
2022/10/04 01:09:53;;;;;;;;;;;;;;;14.23;61.21;99671.59;305429;32;3979;-77
2022/10/04 01:10:06;;;;;;;;;;;;;;;14.23;61.30;99672.44;308653;31;4581;-77
2022/10/04 01:10:25;;;;;;;;;;;;;;;14.21;61.15;99669.03;307899;32;4293;-77
2022/10/04 01:10:38;;;;;;;;;;;;;;;14.24;61.09;99674.13;305561;32;1293;-77
2022/10/04 01:11:08;;;;;;;;;;;;;;;14.22;61.28;99670.72;304686;32;2714;-77
2022/10/04 01:11:22;;;;;;;;;;;;;;;14.24;60.97;99673.28;301355;32;4411;-77
2022/10/04 01:11:34;;;;;;;;;;;;;;;14.22;61.03;99670.72;299945;32;5270;-77
2022/10/04 01:11:46;;;;;;;;;;;;;;;14.22;61.02;99669.88;299645;32;6195;-78
2022/10/04 01:12:01;;;;;;;;;;;;;;;14.21;61.29;99668.19;298828;32;6082;-77
2022/10/04 01:12:41;;;;;;;;;;;;;;;14.21;61.41;99671.66;296125;33;6837;-77
2022/10/04 01:12:52;;;;;;;;;;;;;;;14.21;60.92;99669.03;294324;33;799;-77
2022/10/04 01:13:03;;;;;;;;;;;;;;;14.21;61.35;99668.19;287076;34;4389;-77
2022/10/04 01:13:15;;;;;;;;;;;;;;;14.20;61.09;99672.59;287560;33;4500;-77
2022/10/04 01:13:44;;;;;;;;;;;;;;;14.21;61.12;99669.03;288158;34;6384;-77
2022/10/04 01:13:58;;;;;;;;;;;;;;;14.22;61.14;99669.88;284776;34;1233;-77
2022/10/04 01:14:10;;;;;;;;;;;;;;;14.22;61.47;99668.09;280519;35;1320;-76
2022/10/04 01:14:25;;;;;;;;;;;;;;;14.22;61.72;99670.72;275346;35;1632;-76
2022/10/04 01:14:39;;;;;;;;;;;;;;;14.21;61.44;99674.31;272414;36;949;-76
2022/10/04 01:15:01;;;;;;;;;;;;;;;14.21;61.28;99673.44;267601;36;8032;-76
2022/10/04 01:17:03;;;;;;;;;;;;;;;14.21;61.42;99674.31;2491433;27;19929;-76
2022/10/04 01:17:13;;;;;;;;;;;;;;;14.20;61.13;99669.97;353056;27;4102;-76
2022/10/04 01:17:23;;;;;;;;;;;;;;;14.19;61.55;99667.41;354250;27;3066;-76
2022/10/04 01:17:34;;;;;;;;;;;;;;;14.18;61.44;99671.84;353188;28;1597;-78
2022/10/04 01:18:16;;;;;;;;;;;;;;;14.20;61.89;99671.75;351969;28;915;-77
2022/10/04 01:18:28;;;;;;;;;;;;;;;14.18;61.53;99677.09;346412;28;901;-77
2022/10/04 01:18:38;;;;;;;;;;;;;;;14.17;61.31;99672.75;345370;28;1245;-77
2022/10/04 01:18:48;;;;;;;;;;;;;;;14.17;61.55;99675.41;343575;28;1374;-77
2022/10/04 01:19:37;;;;;;;;;;;;;;;14.19;61.48;99672.69;343496;28;1504;-77
2022/10/04 01:19:48;;;;;;;;;;;;;;;14.22;61.74;99678.63;342380;28;1348;-77
2022/10/04 01:19:58;;;;;;;;;;;;;;;14.22;61.29;99676.00;342242;28;1338;-77
2022/10/04 01:20:28;;;;;;;;;;;;;;;14.22;61.53;99672.53;341115;29;1181;-78
2022/10/04 01:20:49;;;;;;;;;;;;;;;14.22;61.66;99665.47;341703;28;1579;-77
2022/10/04 01:21:02;;;;;;;;;;;;;;;14.15;61.47;99673.78;345861;28;1105;-77
2022/10/04 01:21:18;;;;;;;;;;;;;;;14.08;62.02;99667.16;344350;28;1312;-77
2022/10/04 01:21:29;;;;;;;;;;;;;;;14.06;61.68;99674.28;344954;28;911;-77
2022/10/04 01:21:39;;;;;;;;;;;;;;;14.06;62.29;99663.75;345096;28;938;-77
2022/10/04 01:22:09;;;;;;;;;;;;;;;14.06;62.13;99672.50;345437;28;752;-77
2022/10/04 01:22:35;;;;;;;;;;;;;;;14.10;61.93;99673.19;345775;28;1490;-77
2022/10/04 01:22:47;;;;;;;;;;;;;;;14.12;61.85;99669.53;344009;28;1342;-77
2022/10/04 01:22:57;;;;;;;;;;;;;;;14.11;61.98;99670.47;345477;28;1546;-77
2022/10/04 01:23:08;;;;;;;;;;;;;;;14.06;62.04;99680.38;347700;28;874;-77
2022/10/04 01:23:37;;;;;;;;;;;;;;;14.03;62.18;99670.03;346378;28;1444;-77
2022/10/04 01:23:48;;;;;;;;;;;;;;;14.04;62.18;99671.72;343730;28;1257;-77
2022/10/04 01:23:58;;;;;;;;;;;;;;;14.03;62.18;99670.03;344893;28;1182;-77
2022/10/04 01:24:09;;;;;;;;;;;;;;;14.05;61.96;99667.31;345142;28;896;-77
2022/10/04 01:24:20;;;;;;;;;;;;;;;14.07;61.92;99668.09;345131;28;881;-77
2022/10/04 01:24:40;;;;;;;;;;;;;;;14.06;62.36;99664.59;344807;28;1188;-77
2022/10/04 01:24:51;;;;;;;;;;;;;;;14.05;61.98;99673.44;338363;29;1375;-76
2022/10/04 01:25:01;;;;;;;;;;;;;;;14.05;62.10;99673.44;340819;28;1310;-77
2022/10/04 01:25:12;;;;;;;;;;;;;;;14.06;62.09;99669.88;338736;29;1361;-77
2022/10/04 01:25:40;;;;;;;;;;;;;;;14.07;62.06;99666.31;338482;29;1336;-77
2022/10/04 01:25:51;;;;;;;;;;;;;;;14.12;62.04;99673.94;334734;29;1982;-77
2022/10/04 01:26:02;;;;;;;;;;;;;;;14.12;61.84;99669.53;333318;29;821;-77
2022/10/04 01:26:33;;;;;;;;;;;;;;;14.13;62.13;99673.88;334634;29;1326;-77
2022/10/04 01:26:44;;;;;;;;;;;;;;;14.12;62.00;99668.69;337839;29;1652;-77
2022/10/04 01:26:54;;;;;;;;;;;;;;;14.12;62.04;99671.31;338006;29;1993;-77
2022/10/04 01:27:06;;;;;;;;;;;;;;;14.13;62.13;99665.13;335808;29;1780;-77
2022/10/04 01:27:31;;;;;;;;;;;;;;;14.12;62.39;99674.78;334199;29;1825;-77
2022/10/04 01:27:42;;;;;;;;;;;;;;;14.09;62.40;99671.47;331677;29;2006;-77
2022/10/04 01:27:52;;;;;;;;;;;;;;;14.08;62.39;99665.38;328983;29;2175;-77
2022/10/04 01:28:02;;;;;;;;;;;;;;;14.08;61.98;99680.31;329562;30;1230;-77
2022/10/04 01:28:13;;;;;;;;;;;;;;;14.09;62.23;99666.22;327630;30;1627;-77
2022/10/04 01:28:23;;;;;;;;;;;;;;;14.09;62.15;99669.69;328481;30;861;-77
2022/10/04 01:28:33;;;;;;;;;;;;;;;14.10;62.24;99679.28;329577;30;1206;-77
2022/10/04 01:28:44;;;;;;;;;;;;;;;14.11;62.23;99670.47;331173;29;1234;-77
2022/10/04 01:28:57;;;;;;;;;;;;;;;14.12;62.13;99674.78;330894;29;1893;-77